KJFK/JFK METAR and TAF weather

Enter ICAO airport designator
Station Type Date Time Source
KJFK METAR 2019/04/22 19:51 UTC NOAA

KJFK 221951Z 35004KT 4SM RA BR SCT025 BKN031 OVC050 14/14 A3001 RMK AO2 SLP160 P0005 T01390139


Station Type Date Time Source
KJFK Decoded METAR 2019/04/22 19:51 UTC NOAA

KENNEDY INTERNATIONAL AIRPORT , NY, United States (KJFK) 40-38N 073-46W 9M
Apr 22, 2019 - 03:51 PM EDT / 2019.04.22 1951 UTC
Wind: from the N (350 degrees) at 5 MPH (4 KT):0
Visibility: 4 mile(s):0
Sky conditions: overcast
Weather: rain; mist
Precipitation last hour: 0.05 inches
Temperature: 57.0 F (13.9 C)
Dew Point: 57.0 F (13.9 C)
Relative Humidity: 100%
Pressure (altimeter): 30.01 in. Hg (1016 hPa)
ob: KJFK 221951Z 35004KT 4SM RA BR SCT025 BKN031 OVC050 14/14 A3001 RMK AO2 SLP160 P0005 T01390139
cycle: 20

Station Type Date Time Source
KJFK TAF 2019/04/22 20:38 UTC NOAA

TAF
AMD KJFK 221931Z 2220/2324 34010KT 6SM -SHRA SCT025 BKN040
TEMPO 2220/2223 4SM -SHRA BR BKN025
FM222300 34007KT P6SM VCSH SCT025 BKN040
FM230400 32007KT P6SM SCT025 SCT030 BKN080
FM231500 24007KT P6SM SCT035 SCT250
FM231700 18010KT P6SM SCT250

Example: see airport list